Crystal Hill, Arkansas
Current Conditions -  °F | °C
As of 1:58 AM on Tuesday 21 Oct 2014 (Local Time) from KLRF Reporting Station
Clear Clear  
Wind Chill: 53°   Ceiling: Unl
Heat Index: 53°   Visibility: 10mi
Dew Point: 50°   Wind: 3mph
Humidity: 92%   Direction: 250°WSW
Pressure: 30.04"   Gusts: NA
Location:  34.868°N, 92.3217°W
Report Text: KLRF 210658Z AUTO 25003KT 10SM CLR 12/10 A3004 RMK AO2 SLP174 T01150102
Loading
Personal Weather Stations






























Interactive Weather Map
Tropical Storm Tracking
New forecast layout! Learn more

10-Day Weather Forecast

Advertisements
Track Severe Weather on mobile